createdAt,value
2019-03-13T00:00:45.348Z,74.36
2019-03-13T00:03:15.087Z,73.72
2019-03-13T00:05:44.326Z,72.75
2019-03-13T00:08:13.509Z,73.43
2019-03-13T00:10:42.719Z,73.65
2019-03-13T00:13:11.950Z,73.47
2019-03-13T00:15:41.125Z,73.23
2019-03-13T00:18:10.311Z,73.46
2019-03-13T00:20:39.492Z,73.09
2019-03-13T00:23:08.860Z,73.10
2019-03-13T00:25:38.041Z,72.83
2019-03-13T00:28:07.233Z,73.30
2019-03-13T00:30:36.490Z,74.42
2019-03-13T00:33:05.656Z,74.59
2019-03-13T00:35:34.845Z,74.36
2019-03-13T00:38:04.053Z,74.81
2019-03-13T00:40:33.230Z,74.80
2019-03-13T00:43:02.423Z,74.42
2019-03-13T00:45:31.595Z,74.59
2019-03-13T00:48:00.791Z,74.49
2019-03-13T00:50:34.147Z,74.37
2019-03-13T00:53:03.319Z,74.32
2019-03-13T00:55:32.488Z,74.55
2019-03-13T00:58:01.668Z,74.88
2019-03-13T01:00:50.644Z,75.04
2019-03-13T01:03:33.191Z,74.64
2019-03-13T01:06:04.065Z,74.44
2019-03-13T01:08:33.246Z,74.53
2019-03-13T01:11:02.419Z,74.59
2019-03-13T01:13:31.591Z,74.93
2019-03-13T01:16:01.235Z,74.94
2019-03-13T01:18:30.437Z,74.83
2019-03-13T01:20:59.612Z,74.89
2019-03-13T01:23:28.790Z,74.79
2019-03-13T01:25:57.964Z,75.37
2019-03-13T01:28:27.206Z,75.34
2019-03-13T01:31:07.001Z,75.00
2019-03-13T01:33:36.277Z,75.12
2019-03-13T01:36:07.004Z,74.89
2019-03-13T01:38:36.184Z,75.20
2019-03-13T01:41:05.351Z,74.91
2019-03-13T01:43:34.575Z,74.65
2019-03-13T01:46:03.756Z,74.56
2019-03-13T01:48:32.942Z,74.73
2019-03-13T01:51:02.132Z,74.33
2019-03-13T01:53:31.304Z,74.77
2019-03-13T01:56:00.500Z,74.71
2019-03-13T01:58:29.674Z,74.69
2019-03-13T02:00:58.847Z,75.01
2019-03-13T02:03:28.029Z,74.81
2019-03-13T02:05:57.199Z,75.03
2019-03-13T02:08:26.377Z,75.01
2019-03-13T02:10:55.628Z,75.29
2019-03-13T02:13:24.873Z,75.52
2019-03-13T02:15:54.116Z,74.96
2019-03-13T02:18:41.599Z,74.97
2019-03-13T02:21:10.792Z,74.48
2019-03-13T02:23:39.971Z,73.86
2019-03-13T02:26:09.146Z,73.75
2019-03-13T02:28:38.387Z,73.63
2019-03-13T02:31:07.564Z,73.46
2019-03-13T02:33:36.724Z,73.40
2019-03-13T02:36:05.962Z,73.42
2019-03-13T02:38:35.147Z,73.27
2019-03-13T02:41:04.316Z,73.21
2019-03-13T02:43:33.507Z,73.23
2019-03-13T02:46:02.685Z,73.11
2019-03-13T02:48:31.898Z,72.99
2019-03-13T02:51:01.080Z,72.03
2019-03-13T02:53:30.263Z,72.30
2019-03-13T02:55:59.441Z,72.60
2019-03-13T02:58:28.678Z,72.38
2019-03-13T03:01:16.042Z,72.17
2019-03-13T03:03:46.862Z,72.16
2019-03-13T03:06:16.070Z,72.13
2019-03-13T03:08:45.304Z,71.76
2019-03-13T03:11:14.490Z,72.09
2019-03-13T03:13:43.667Z,72.32
2019-03-13T03:16:12.839Z,72.88
2019-03-13T03:18:42.076Z,73.23
2019-03-13T03:21:11.243Z,73.09
2019-03-13T03:23:44.870Z,73.47
2019-03-13T03:26:11.284Z,73.36
2019-03-13T03:28:58.452Z,73.57
2019-03-13T03:31:28.335Z,73.40
2019-03-13T03:34:02.381Z,73.69
2019-03-13T03:36:32.006Z,73.51
2019-03-13T03:39:01.186Z,73.43
2019-03-13T03:41:30.427Z,73.55
2019-03-13T03:43:59.678Z,73.34
2019-03-13T03:46:28.878Z,73.14
2019-03-13T03:48:58.327Z,73.17
2019-03-13T03:51:27.525Z,73.02
2019-03-13T03:53:56.716Z,73.05
2019-03-13T03:56:25.927Z,73.15
2019-03-13T03:58:55.168Z,73.14
2019-03-13T04:01:24.354Z,73.02
2019-03-13T04:03:53.536Z,73.03
2019-03-13T04:06:23.251Z,73.12
2019-03-13T04:08:52.461Z,73.23
2019-03-13T04:11:21.631Z,73.40
2019-03-13T04:13:50.814Z,73.30
2019-03-13T04:16:20.001Z,73.04
2019-03-13T04:18:49.178Z,72.79
2019-03-13T04:21:18.372Z,73.13
2019-03-13T04:23:47.821Z,73.02
2019-03-13T04:26:17.058Z,73.22
2019-03-13T04:28:46.240Z,72.17
2019-03-13T04:31:15.408Z,72.73
2019-03-13T04:33:44.616Z,72.12
2019-03-13T04:36:13.778Z,71.72
2019-03-13T04:38:43.006Z,71.52
2019-03-13T04:41:12.224Z,71.80
2019-03-13T04:43:41.363Z,71.81
2019-03-13T04:46:10.564Z,72.11
2019-03-13T04:48:39.729Z,72.24
2019-03-13T04:51:08.903Z,72.57
2019-03-13T04:53:38.111Z,72.83
2019-03-13T04:56:07.273Z,72.87
2019-03-13T04:58:36.439Z,72.49
2019-03-13T05:01:05.616Z,72.63
2019-03-13T05:03:35.647Z,72.71
2019-03-13T05:06:06.795Z,72.94
2019-03-13T05:08:44.982Z,72.72
2019-03-13T05:11:09.772Z,72.69
2019-03-13T05:13:38.959Z,73.06
2019-03-13T05:16:08.115Z,73.47
2019-03-13T05:18:37.303Z,73.42
2019-03-13T05:21:06.476Z,73.17
2019-03-13T05:23:35.642Z,73.04
2019-03-13T05:26:04.989Z,72.68
2019-03-13T05:28:34.155Z,72.63
2019-03-13T05:31:03.378Z,72.62
2019-03-13T05:33:32.559Z,72.58
2019-03-13T05:36:01.727Z,72.37
2019-03-13T05:38:30.912Z,72.81
2019-03-13T05:41:18.044Z,72.28
2019-03-13T05:44:04.935Z,72.46
2019-03-13T05:46:34.102Z,72.71
2019-03-13T05:49:03.307Z,72.85
2019-03-13T05:51:32.473Z,72.97
2019-03-13T05:54:01.630Z,73.03
2019-03-13T05:56:30.805Z,73.05
2019-03-13T05:58:59.981Z,73.35
2019-03-13T06:01:29.171Z,73.11
2019-03-13T06:03:58.339Z,72.84
2019-03-13T06:06:27.539Z,72.29
2019-03-13T06:08:56.704Z,72.64
2019-03-13T06:11:25.882Z,72.25
2019-03-13T06:13:55.070Z,72.24
2019-03-13T06:16:24.257Z,71.80
2019-03-13T06:18:53.458Z,71.81
2019-03-13T06:21:22.652Z,72.20
2019-03-13T06:23:51.821Z,71.93
2019-03-13T06:26:21.059Z,72.05
2019-03-13T06:28:50.231Z,71.86
2019-03-13T06:31:19.504Z,71.70
2019-03-13T06:33:48.668Z,71.39
2019-03-13T06:36:17.833Z,71.73
2019-03-13T06:38:47.007Z,71.67
2019-03-13T06:41:17.564Z,71.40
2019-03-13T06:43:46.906Z,71.50
2019-03-13T06:46:16.082Z,71.61
2019-03-13T06:48:45.260Z,71.99
2019-03-13T06:51:14.451Z,71.52
2019-03-13T06:53:43.681Z,71.51
2019-03-13T06:56:12.883Z,71.57
2019-03-13T06:58:46.704Z,71.81
2019-03-13T07:01:17.575Z,71.96
2019-03-13T07:04:03.465Z,72.23
2019-03-13T07:06:37.029Z,72.31
2019-03-13T07:09:26.264Z,72.35
2019-03-13T07:12:13.209Z,72.56
2019-03-13T07:14:49.714Z,72.47
2019-03-13T07:17:23.344Z,73.11
2019-03-13T07:20:10.532Z,73.17
2019-03-13T07:22:44.001Z,74.21
2019-03-13T07:25:32.844Z,73.92
2019-03-13T07:28:06.354Z,74.93
2019-03-13T07:30:39.622Z,75.00
2019-03-13T07:33:28.263Z,75.21
2019-03-13T07:36:01.658Z,74.89
2019-03-13T07:38:32.500Z,75.49
2019-03-13T07:41:05.911Z,75.40
2019-03-13T07:43:39.351Z,75.31
2019-03-13T07:46:26.442Z,75.17
2019-03-13T07:49:06.220Z,75.04
2019-03-13T07:51:37.016Z,74.46
2019-03-13T07:54:07.847Z,74.33
2019-03-13T07:56:47.478Z,74.92
2019-03-13T07:59:36.591Z,74.42
2019-03-13T08:02:10.246Z,74.18
2019-03-13T08:04:43.580Z,74.33
2019-03-13T08:07:14.433Z,73.95
2019-03-13T08:10:03.293Z,73.99
2019-03-13T08:12:34.141Z,73.82
2019-03-13T08:15:07.983Z,73.64
2019-03-13T08:17:41.786Z,73.88
2019-03-13T08:20:12.664Z,74.14
2019-03-13T08:22:49.463Z,73.87
2019-03-13T08:25:22.788Z,73.89
2019-03-13T08:27:53.608Z,74.35
2019-03-13T08:30:24.438Z,74.33
2019-03-13T08:33:07.461Z,74.24
2019-03-13T08:35:50.330Z,73.62
2019-03-13T08:38:21.168Z,73.52
2019-03-13T08:41:08.119Z,74.04
2019-03-13T08:43:38.946Z,73.93
2019-03-13T08:46:09.748Z,74.39
2019-03-13T08:48:52.542Z,74.40
2019-03-13T08:51:23.370Z,74.46
2019-03-13T08:54:10.601Z,73.88
2019-03-13T08:56:56.126Z,74.01
2019-03-13T08:59:29.443Z,73.98
2019-03-13T09:02:00.254Z,74.28
2019-03-13T09:04:46.206Z,74.82
2019-03-13T09:07:35.082Z,74.71
2019-03-13T09:10:16.777Z,74.43
2019-03-13T09:13:05.682Z,74.09
2019-03-13T09:15:36.627Z,74.36
2019-03-13T09:18:10.074Z,74.01
2019-03-13T09:20:46.799Z,74.17
2019-03-13T09:23:23.214Z,74.58
2019-03-13T09:25:56.813Z,75.29
2019-03-13T09:28:33.408Z,75.86
2019-03-13T09:31:04.315Z,75.42
2019-03-13T09:33:46.995Z,75.38
2019-03-13T09:36:20.667Z,75.30
2019-03-13T09:39:00.140Z,76.00
2019-03-13T09:41:36.429Z,76.92
2019-03-13T09:44:07.278Z,77.87
2019-03-13T09:46:40.816Z,79.34
2019-03-13T09:49:28.590Z,79.84
2019-03-13T09:51:59.428Z,80.08
2019-03-13T09:54:32.714Z,81.72
2019-03-13T09:57:03.557Z,82.25
2019-03-13T09:59:50.377Z,82.64
2019-03-13T10:02:22.700Z,82.57
2019-03-13T10:05:11.539Z,83.07
2019-03-13T10:08:00.318Z,83.65
2019-03-13T10:10:39.996Z,84.24
2019-03-13T10:13:26.049Z,83.89
2019-03-13T10:16:02.605Z,84.18
2019-03-13T10:18:33.797Z,84.48
2019-03-13T10:21:04.605Z,84.16
2019-03-13T10:23:35.826Z,83.48
2019-03-13T10:26:06.626Z,83.60
2019-03-13T10:28:37.514Z,82.63
2019-03-13T10:31:17.442Z,81.88
2019-03-13T10:33:50.948Z,82.49
2019-03-13T10:36:30.694Z,82.49
2019-03-13T10:39:04.274Z,81.99
2019-03-13T10:41:43.984Z,81.56
2019-03-13T10:44:32.918Z,82.12
2019-03-13T10:47:19.748Z,82.24
2019-03-13T10:49:56.748Z,82.00
2019-03-13T10:52:27.563Z,81.37
2019-03-13T10:54:58.361Z,81.57
2019-03-13T10:57:34.986Z,81.81
2019-03-13T11:00:11.352Z,82.36
2019-03-13T11:03:00.398Z,81.89
2019-03-13T11:05:31.206Z,81.26
2019-03-13T11:08:07.737Z,80.54
2019-03-13T11:10:38.557Z,79.94
2019-03-13T11:13:24.379Z,79.47
2019-03-13T11:15:57.814Z,79.18
2019-03-13T11:18:55.845Z,79.04
2019-03-13T11:21:35.283Z,78.80
2019-03-13T11:24:06.267Z,78.70
2019-03-13T11:26:40.765Z,78.36
2019-03-13T11:29:11.594Z,78.34
2019-03-13T11:31:58.515Z,77.06
2019-03-13T11:34:47.533Z,76.90
2019-03-13T11:37:21.355Z,76.64
2019-03-13T11:40:04.012Z,77.25
2019-03-13T11:42:46.497Z,77.08
2019-03-13T11:45:17.489Z,77.92
2019-03-13T11:47:51.181Z,76.84
2019-03-13T11:50:27.513Z,76.88
2019-03-13T11:53:00.847Z,76.93
2019-03-13T11:55:48.169Z,76.89
2019-03-13T11:58:19.164Z,77.18
2019-03-13T12:00:50.042Z,77.00
2019-03-13T12:03:37.279Z,77.37
2019-03-13T12:06:17.242Z,77.56
2019-03-13T12:08:50.798Z,77.60
2019-03-13T12:11:21.615Z,77.86
2019-03-13T12:13:52.457Z,78.27
2019-03-13T12:16:39.346Z,77.93
2019-03-13T12:19:12.728Z,78.09
2019-03-13T12:21:43.554Z,78.27
2019-03-13T12:24:14.410Z,77.29
2019-03-13T12:26:45.503Z,77.29
2019-03-13T12:29:31.534Z,77.10
2019-03-13T12:32:18.358Z,76.82
2019-03-13T12:35:05.251Z,77.11
2019-03-13T12:37:47.903Z,79.23
2019-03-13T12:40:35.026Z,80.47
2019-03-13T12:43:20.830Z,81.10
2019-03-13T12:46:00.622Z,82.06
2019-03-13T12:48:49.635Z,82.59
2019-03-13T12:51:20.459Z,82.38
2019-03-13T12:54:03.593Z,81.59
2019-03-13T12:56:34.446Z,80.70
2019-03-13T12:59:05.252Z,80.57
2019-03-13T13:01:41.783Z,79.33
2019-03-13T13:04:27.730Z,78.45
2019-03-13T13:07:10.639Z,78.41
2019-03-13T13:09:57.679Z,78.41
2019-03-13T13:12:44.645Z,79.18
2019-03-13T13:15:15.608Z,79.98
2019-03-13T13:17:46.428Z,79.71
2019-03-13T13:20:15.676Z,80.18
2019-03-13T13:22:44.856Z,80.33
2019-03-13T13:25:14.137Z,79.07
2019-03-13T13:27:43.456Z,78.61
2019-03-13T13:30:15.386Z,78.61
2019-03-13T13:32:44.632Z,77.83
2019-03-13T13:35:13.799Z,76.79
2019-03-13T13:37:43.102Z,76.79
2019-03-13T13:40:14.917Z,76.58
2019-03-13T13:42:44.095Z,77.54
2019-03-13T13:45:40.613Z,78.02
2019-03-13T13:48:09.819Z,78.63
2019-03-13T13:50:39.018Z,79.17
2019-03-13T13:53:08.206Z,78.53
2019-03-13T13:55:37.390Z,77.98
2019-03-13T13:58:06.576Z,77.36
2019-03-13T14:00:35.765Z,76.95
2019-03-13T14:03:04.970Z,76.43
2019-03-13T14:05:34.154Z,75.95
2019-03-13T14:08:03.326Z,75.28
2019-03-13T14:10:32.499Z,75.42
2019-03-13T14:13:01.754Z,75.95
2019-03-13T14:15:30.948Z,75.65
2019-03-13T14:18:00.472Z,75.53
2019-03-13T14:20:29.688Z,75.51
2019-03-13T14:22:58.888Z,75.52
2019-03-13T14:25:28.055Z,75.52
2019-03-13T14:27:57.298Z,75.87
2019-03-13T14:30:26.449Z,75.87
2019-03-13T14:32:55.632Z,75.52
2019-03-13T14:35:24.808Z,76.15
2019-03-13T14:37:54.005Z,76.13
2019-03-13T14:40:23.284Z,76.64
2019-03-13T14:42:52.535Z,76.75
2019-03-13T14:45:21.978Z,76.75
2019-03-13T14:47:51.158Z,76.26
2019-03-13T14:50:21.497Z,75.73
2019-03-13T14:52:50.762Z,75.73
2019-03-13T14:55:20.003Z,75.70
2019-03-13T14:57:49.182Z,75.70
2019-03-13T15:00:22.700Z,75.14
2019-03-13T15:03:10.243Z,74.54
2019-03-13T15:05:39.499Z,74.55
2019-03-13T15:08:08.691Z,75.08
2019-03-13T15:10:37.894Z,75.08
2019-03-13T15:13:09.619Z,74.94
2019-03-13T15:15:38.804Z,74.84
2019-03-13T15:18:07.989Z,74.41
2019-03-13T15:20:37.205Z,73.99
2019-03-13T15:23:07.760Z,73.99
2019-03-13T15:25:37.120Z,73.48
2019-03-13T15:28:06.309Z,73.35
2019-03-13T15:30:35.492Z,72.80
2019-03-13T15:33:04.792Z,73.01
2019-03-13T15:35:33.952Z,73.44
2019-03-13T15:38:03.224Z,73.44
2019-03-13T15:40:32.408Z,72.90
2019-03-13T15:43:01.614Z,72.71
2019-03-13T15:45:32.636Z,72.71
2019-03-13T15:48:01.833Z,73.44
2019-03-13T15:50:31.030Z,79.13
2019-03-13T15:53:00.292Z,81.21
2019-03-13T15:55:29.484Z,81.21
2019-03-13T15:57:58.662Z,82.53
2019-03-13T16:00:29.061Z,81.49
2019-03-13T16:02:58.316Z,80.75
2019-03-13T16:05:27.604Z,80.38
2019-03-13T16:07:56.944Z,79.59
2019-03-13T16:10:26.337Z,78.61
2019-03-13T16:12:57.160Z,78.61
2019-03-13T16:15:37.872Z,78.18
2019-03-13T16:18:07.184Z,78.13
2019-03-13T16:20:36.368Z,77.89
2019-03-13T16:23:05.708Z,78.36
2019-03-13T16:25:34.909Z,78.35
2019-03-13T16:28:04.157Z,78.46
2019-03-13T16:30:46.631Z,79.10
2019-03-13T16:33:15.814Z,78.79
2019-03-13T16:35:45.016Z,78.51
2019-03-13T16:38:14.187Z,78.51
2019-03-13T16:40:43.434Z,78.19
2019-03-13T16:43:12.630Z,78.15
2019-03-13T16:45:41.804Z,77.93
2019-03-13T16:48:10.976Z,77.99
2019-03-13T16:50:40.162Z,77.65
2019-03-13T16:53:09.340Z,77.10
2019-03-13T16:55:38.531Z,77.02
2019-03-13T16:58:07.711Z,76.31
2019-03-13T17:00:37.236Z,75.39
2019-03-13T17:03:06.412Z,74.26
2019-03-13T17:05:35.597Z,73.87
2019-03-13T17:08:04.778Z,73.82
2019-03-13T17:10:52.212Z,73.58
2019-03-13T17:13:21.397Z,73.54
2019-03-13T17:15:50.575Z,72.94
2019-03-13T17:18:19.782Z,72.95
2019-03-13T17:20:48.976Z,72.35
2019-03-13T17:23:18.181Z,71.57
2019-03-13T17:25:47.358Z,71.34
2019-03-13T17:28:16.535Z,73.06
2019-03-13T17:30:45.727Z,73.33
2019-03-13T17:33:14.898Z,74.63
2019-03-13T17:35:44.111Z,75.90
2019-03-13T17:38:13.267Z,76.54
2019-03-13T17:40:42.442Z,76.83
2019-03-13T17:43:11.691Z,77.39
2019-03-13T17:45:40.867Z,77.94
2019-03-13T17:48:10.078Z,77.76
2019-03-13T17:50:39.275Z,78.01
2019-03-13T17:53:08.462Z,77.62
2019-03-13T17:55:37.612Z,77.18
2019-03-13T17:58:06.787Z,77.14
2019-03-13T18:00:48.105Z,76.68
2019-03-13T18:03:17.446Z,76.31
2019-03-13T18:05:46.644Z,75.87
2019-03-13T18:08:15.884Z,75.84
2019-03-13T18:10:45.187Z,76.00
2019-03-13T18:13:14.442Z,76.32
2019-03-13T18:15:43.786Z,76.77
2019-03-13T18:18:12.975Z,77.16
2019-03-13T18:20:42.190Z,77.26
2019-03-13T18:23:11.383Z,78.35
2019-03-13T18:25:40.574Z,78.35
2019-03-13T18:28:09.764Z,78.74
2019-03-13T18:30:39.032Z,78.73
2019-03-13T18:33:08.230Z,78.25
2019-03-13T18:35:37.414Z,78.16
2019-03-13T18:38:06.582Z,77.53
2019-03-13T18:40:35.789Z,76.83
2019-03-13T18:43:05.046Z,76.08
2019-03-13T18:45:35.493Z,74.94
2019-03-13T18:48:04.811Z,74.03
2019-03-13T18:50:34.065Z,73.01
2019-03-13T18:53:03.346Z,72.32
2019-03-13T18:55:34.443Z,71.66
2019-03-13T18:58:03.715Z,70.89
2019-03-13T19:00:37.586Z,70.71
2019-03-13T19:03:24.605Z,69.89
2019-03-13T19:06:11.993Z,69.95
2019-03-13T19:08:41.239Z,69.79
2019-03-13T19:11:10.377Z,70.13
2019-03-13T19:13:39.567Z,70.41
2019-03-13T19:16:08.749Z,70.73
2019-03-13T19:18:37.917Z,70.86
2019-03-13T19:21:07.121Z,71.32
2019-03-13T19:23:36.301Z,71.75
2019-03-13T19:26:05.508Z,71.98
2019-03-13T19:28:34.694Z,71.83
2019-03-13T19:31:03.958Z,71.77
2019-03-13T19:33:33.150Z,71.09
2019-03-13T19:36:02.326Z,70.54
2019-03-13T19:38:31.500Z,70.34
2019-03-13T19:41:00.686Z,70.33
2019-03-13T19:43:29.897Z,70.12
2019-03-13T19:45:59.144Z,68.93
2019-03-13T19:48:28.420Z,67.96
2019-03-13T19:50:57.625Z,65.52
2019-03-13T19:53:26.802Z,66.04
2019-03-13T19:55:56.000Z,66.98
2019-03-13T19:58:25.166Z,68.13
2019-03-13T20:00:54.512Z,69.08
2019-03-13T20:03:23.694Z,69.55
2019-03-13T20:05:52.893Z,70.30
2019-03-13T20:08:22.119Z,71.09
2019-03-13T20:10:51.389Z,71.42
2019-03-13T20:13:20.567Z,73.00
2019-03-13T20:15:49.816Z,74.41
2019-03-13T20:18:19.082Z,75.10
2019-03-13T20:20:48.237Z,76.00
2019-03-13T20:23:18.276Z,77.54
2019-03-13T20:25:47.461Z,80.00
2019-03-13T20:28:17.506Z,82.34
2019-03-13T20:30:46.676Z,83.44
2019-03-13T20:33:15.878Z,84.07
2019-03-13T20:35:45.058Z,84.32
2019-03-13T20:38:14.227Z,84.53
2019-03-13T20:40:43.423Z,84.30
2019-03-13T20:43:12.633Z,84.56
2019-03-13T20:45:41.825Z,84.28
2019-03-13T20:48:11.163Z,84.14
2019-03-13T20:50:40.350Z,83.99
2019-03-13T20:53:09.533Z,83.86
2019-03-13T20:55:38.636Z,83.38
2019-03-13T20:58:07.855Z,83.17
2019-03-13T21:00:37.116Z,82.85
2019-03-13T21:03:06.430Z,82.22
2019-03-13T21:05:35.592Z,81.86
2019-03-13T21:08:04.864Z,81.64
2019-03-13T21:10:34.087Z,81.43
2019-03-13T21:13:03.309Z,80.70
2019-03-13T21:15:32.544Z,80.70
2019-03-13T21:18:01.715Z,80.69
2019-03-13T21:20:30.985Z,80.65
2019-03-13T21:23:00.171Z,80.25
2019-03-13T21:25:29.351Z,79.69
2019-03-13T21:27:59.665Z,79.41
2019-03-13T21:30:29.413Z,79.16
2019-03-13T21:32:58.669Z,78.91
2019-03-13T21:35:27.848Z,78.38
2019-03-13T21:37:57.085Z,78.40
2019-03-13T21:40:32.231Z,78.39
2019-03-13T21:43:00.132Z,78.49
2019-03-13T21:45:40.648Z,78.24
2019-03-13T21:48:00.277Z,78.24
2019-03-13T21:50:29.467Z,77.55
2019-03-13T21:52:58.667Z,77.55
2019-03-13T21:55:28.190Z,77.32
2019-03-13T21:57:57.434Z,77.04
2019-03-13T22:00:27.758Z,76.73
2019-03-13T22:02:56.975Z,76.85
2019-03-13T22:05:27.351Z,76.84
2019-03-13T22:07:56.917Z,76.86
2019-03-13T22:10:26.089Z,76.64
2019-03-13T22:12:55.275Z,76.68
2019-03-13T22:15:24.879Z,76.69
2019-03-13T22:17:54.071Z,76.37
2019-03-13T22:20:23.287Z,76.25
2019-03-13T22:22:52.446Z,76.25
2019-03-13T22:25:21.612Z,75.91
2019-03-13T22:27:50.876Z,75.54
2019-03-13T22:30:28.566Z,75.64
2019-03-13T22:32:56.100Z,75.57
2019-03-13T22:35:25.363Z,75.47
2019-03-13T22:37:54.777Z,75.30
2019-03-13T22:40:23.976Z,75.48
2019-03-13T22:42:53.172Z,75.34
2019-03-13T22:45:22.517Z,74.99
2019-03-13T22:47:51.738Z,74.64
2019-03-13T22:50:22.039Z,74.40
2019-03-13T22:52:51.203Z,74.58
2019-03-13T22:55:20.647Z,74.40
2019-03-13T22:57:49.891Z,74.42
2019-03-13T23:00:41.835Z,74.59
2019-03-13T23:03:11.645Z,74.52
2019-03-13T23:05:40.812Z,74.61
2019-03-13T23:08:09.984Z,74.43
2019-03-13T23:10:39.310Z,74.62
2019-03-13T23:13:08.665Z,74.95
2019-03-13T23:15:38.069Z,74.74
2019-03-13T23:18:07.373Z,74.84
2019-03-13T23:20:36.565Z,74.64
2019-03-13T23:23:05.806Z,74.51
2019-03-13T23:25:35.006Z,74.69
2019-03-13T23:28:04.527Z,75.10
2019-03-13T23:30:33.691Z,75.05
2019-03-13T23:33:02.873Z,75.05
2019-03-13T23:35:32.053Z,74.63
2019-03-13T23:38:01.393Z,74.53
2019-03-13T23:40:30.571Z,74.49
2019-03-13T23:42:59.809Z,74.40
2019-03-13T23:45:29.069Z,74.28
2019-03-13T23:47:58.254Z,73.94
2019-03-13T23:50:27.443Z,73.84
2019-03-13T23:52:56.616Z,73.76
2019-03-13T23:55:25.826Z,73.64
2019-03-13T23:57:55.002Z,73.46
